<?xml version="1.0" encoding="UTF-8" standalone="no" ?>
<gpx xmlns="http://www.topografix.com/GPX/1/1" xmlns:xsi="http://www.w3.org/2001/XMLSchema-instance" xsi:schemaLocation="http://www.topografix.com/GPX/1/1 http://www.topografix.com/GPX/1/1/gpx.xsd" version="1.1" creator="VisuGPX - https://www.visugpx.com">
  <metadata>
    <name>Marche à Loupian</name>
    <desc><![CDATA[Marche à Loupian avec Daniel et Guilhem ]]></desc>
  </metadata>
  <trk>
    <name><![CDATA[20190128213608-pMNiz]]></name>
    <trkseg>
      <trkpt lat="43.47985" lon="3.61348">
        <ele>74.6</ele>
      </trkpt>
      <trkpt lat="43.47988" lon="3.61365">
        <ele>75</ele>
      </trkpt>
      <trkpt lat="43.47985" lon="3.61404">
        <ele>71.4</ele>
        <time>2019-01-28T12:32:22Z</time>
      </trkpt>
      <trkpt lat="43.47984" lon="3.61425">
        <ele>71.4</ele>
        <time>2019-01-28T12:32:34Z</time>
      </trkpt>
      <trkpt lat="43.4798" lon="3.61454">
        <ele>72.4</ele>
        <time>2019-01-28T12:32:56Z</time>
      </trkpt>
      <trkpt lat="43.47979" lon="3.61488">
        <ele>73.6</ele>
        <time>2019-01-28T12:33:19Z</time>
      </trkpt>
      <trkpt lat="43.47978" lon="3.61518">
        <ele>74.4</ele>
        <time>2019-01-28T12:33:38Z</time>
      </trkpt>
      <trkpt lat="43.47977" lon="3.61534">
        <ele>75.2</ele>
        <time>2019-01-28T12:33:46Z</time>
      </trkpt>
      <trkpt lat="43.47974" lon="3.61562">
        <ele>76.2</ele>
        <time>2019-01-28T12:34:01Z</time>
      </trkpt>
      <trkpt lat="43.47975" lon="3.61585">
        <ele>77.2</ele>
        <time>2019-01-28T12:34:14Z</time>
      </trkpt>
      <trkpt lat="43.47976" lon="3.6161">
        <ele>78.2</ele>
        <time>2019-01-28T12:34:29Z</time>
      </trkpt>
      <trkpt lat="43.47979" lon="3.61622">
        <ele>79.2</ele>
        <time>2019-01-28T12:34:36Z</time>
      </trkpt>
      <trkpt lat="43.47983" lon="3.61634">
        <ele>80.4</ele>
        <time>2019-01-28T12:34:44Z</time>
      </trkpt>
      <trkpt lat="43.47987" lon="3.61648">
        <ele>81.2</ele>
        <time>2019-01-28T12:34:54Z</time>
      </trkpt>
      <trkpt lat="43.47992" lon="3.61662">
        <ele>82.2</ele>
        <time>2019-01-28T12:35:03Z</time>
      </trkpt>
      <trkpt lat="43.47996" lon="3.61676">
        <ele>83.2</ele>
        <time>2019-01-28T12:35:12Z</time>
      </trkpt>
      <trkpt lat="43.48002" lon="3.61696">
        <ele>84</ele>
        <time>2019-01-28T12:35:24Z</time>
      </trkpt>
      <trkpt lat="43.48007" lon="3.61714">
        <ele>85.2</ele>
        <time>2019-01-28T12:35:35Z</time>
      </trkpt>
      <trkpt lat="43.48009" lon="3.61724">
        <ele>85.2</ele>
        <time>2019-01-28T12:35:40Z</time>
      </trkpt>
      <trkpt lat="43.48012" lon="3.61733">
        <ele>86</ele>
        <time>2019-01-28T12:35:45Z</time>
      </trkpt>
      <trkpt lat="43.48018" lon="3.61755">
        <ele>86.8</ele>
        <time>2019-01-28T12:35:57Z</time>
      </trkpt>
      <trkpt lat="43.48024" lon="3.61771">
        <ele>88</ele>
        <time>2019-01-28T12:36:08Z</time>
      </trkpt>
      <trkpt lat="43.4803" lon="3.6179">
        <ele>89</ele>
        <time>2019-01-28T12:36:20Z</time>
      </trkpt>
      <trkpt lat="43.48034" lon="3.61803">
        <ele>90</ele>
        <time>2019-01-28T12:36:28Z</time>
      </trkpt>
      <trkpt lat="43.48037" lon="3.61814">
        <ele>91</ele>
        <time>2019-01-28T12:36:35Z</time>
      </trkpt>
      <trkpt lat="43.48043" lon="3.61829">
        <ele>92.2</ele>
        <time>2019-01-28T12:36:47Z</time>
      </trkpt>
      <trkpt lat="43.48046" lon="3.6184">
        <ele>93</ele>
        <time>2019-01-28T12:36:55Z</time>
      </trkpt>
      <trkpt lat="43.4805" lon="3.61853">
        <ele>94</ele>
        <time>2019-01-28T12:37:04Z</time>
      </trkpt>
      <trkpt lat="43.48053" lon="3.61866">
        <ele>95.2</ele>
        <time>2019-01-28T12:37:15Z</time>
      </trkpt>
      <trkpt lat="43.48058" lon="3.61876">
        <ele>96</ele>
        <time>2019-01-28T12:37:22Z</time>
      </trkpt>
      <trkpt lat="43.48062" lon="3.6189">
        <ele>97</ele>
        <time>2019-01-28T12:37:31Z</time>
      </trkpt>
      <trkpt lat="43.48066" lon="3.61901">
        <ele>98</ele>
        <time>2019-01-28T12:37:39Z</time>
      </trkpt>
      <trkpt lat="43.4807" lon="3.61913">
        <ele>99</ele>
        <time>2019-01-28T12:37:47Z</time>
      </trkpt>
      <trkpt lat="43.48075" lon="3.61925">
        <ele>100</ele>
        <time>2019-01-28T12:37:56Z</time>
      </trkpt>
      <trkpt lat="43.48078" lon="3.61934">
        <ele>101</ele>
        <time>2019-01-28T12:38:02Z</time>
      </trkpt>
      <trkpt lat="43.48083" lon="3.61949">
        <ele>101.8</ele>
        <time>2019-01-28T12:38:12Z</time>
      </trkpt>
      <trkpt lat="43.48087" lon="3.61959">
        <ele>103</ele>
        <time>2019-01-28T12:38:20Z</time>
      </trkpt>
      <trkpt lat="43.48093" lon="3.61978">
        <ele>103.8</ele>
        <time>2019-01-28T12:38:31Z</time>
      </trkpt>
      <trkpt lat="43.48098" lon="3.61994">
        <ele>104.8</ele>
        <time>2019-01-28T12:38:41Z</time>
      </trkpt>
      <trkpt lat="43.48105" lon="3.62011">
        <ele>105.8</ele>
        <time>2019-01-28T12:38:51Z</time>
      </trkpt>
      <trkpt lat="43.48111" lon="3.6203">
        <ele>106.8</ele>
        <time>2019-01-28T12:39:02Z</time>
      </trkpt>
      <trkpt lat="43.48121" lon="3.62059">
        <ele>107.8</ele>
        <time>2019-01-28T12:39:18Z</time>
      </trkpt>
      <trkpt lat="43.48125" lon="3.62073">
        <ele>109</ele>
        <time>2019-01-28T12:39:26Z</time>
      </trkpt>
      <trkpt lat="43.48129" lon="3.62085">
        <ele>110</ele>
        <time>2019-01-28T12:39:33Z</time>
      </trkpt>
      <trkpt lat="43.48136" lon="3.62101">
        <ele>111</ele>
        <time>2019-01-28T12:39:44Z</time>
      </trkpt>
      <trkpt lat="43.48181" lon="3.62142">
        <ele>111.6</ele>
        <time>2019-01-28T12:40:30Z</time>
      </trkpt>
      <trkpt lat="43.48234" lon="3.62165">
        <ele>110.4</ele>
        <time>2019-01-28T12:41:10Z</time>
      </trkpt>
      <trkpt lat="43.48246" lon="3.62169">
        <ele>109.8</ele>
        <time>2019-01-28T12:41:21Z</time>
      </trkpt>
      <trkpt lat="43.483" lon="3.62188">
        <ele>111</ele>
        <time>2019-01-28T12:42:01Z</time>
      </trkpt>
      <trkpt lat="43.48329" lon="3.62199">
        <ele>112.4</ele>
        <time>2019-01-28T12:42:25Z</time>
      </trkpt>
      <trkpt lat="43.48359" lon="3.62213">
        <ele>113.4</ele>
        <time>2019-01-28T12:42:49Z</time>
      </trkpt>
      <trkpt lat="43.48377" lon="3.6222">
        <ele>114.6</ele>
        <time>2019-01-28T12:43:03Z</time>
      </trkpt>
      <trkpt lat="43.484" lon="3.62227">
        <ele>115.6</ele>
        <time>2019-01-28T12:43:21Z</time>
      </trkpt>
      <trkpt lat="43.48447" lon="3.62243">
        <ele>116.6</ele>
        <time>2019-01-28T12:43:58Z</time>
      </trkpt>
      <trkpt lat="43.48458" lon="3.62247">
        <ele>117.4</ele>
        <time>2019-01-28T12:44:07Z</time>
      </trkpt>
      <trkpt lat="43.48464" lon="3.62249">
        <ele>117.6</ele>
        <time>2019-01-28T12:44:12Z</time>
      </trkpt>
      <trkpt lat="43.48476" lon="3.62255">
        <ele>117.8</ele>
        <time>2019-01-28T12:44:24Z</time>
      </trkpt>
      <trkpt lat="43.48524" lon="3.62292">
        <ele>117.2</ele>
        <time>2019-01-28T12:45:02Z</time>
      </trkpt>
      <trkpt lat="43.48541" lon="3.62307">
        <ele>116.6</ele>
        <time>2019-01-28T12:45:16Z</time>
      </trkpt>
      <trkpt lat="43.48571" lon="3.62322">
        <ele>115.6</ele>
        <time>2019-01-28T12:45:39Z</time>
      </trkpt>
      <trkpt lat="43.48588" lon="3.62333">
        <ele>114.6</ele>
        <time>2019-01-28T12:45:52Z</time>
      </trkpt>
      <trkpt lat="43.48596" lon="3.62338">
        <ele>113.4</ele>
        <time>2019-01-28T12:45:59Z</time>
      </trkpt>
      <trkpt lat="43.48605" lon="3.62345">
        <ele>112.4</ele>
        <time>2019-01-28T12:46:07Z</time>
      </trkpt>
      <trkpt lat="43.48611" lon="3.62352">
        <ele>111.2</ele>
        <time>2019-01-28T12:46:13Z</time>
      </trkpt>
      <trkpt lat="43.48621" lon="3.62356">
        <ele>110.2</ele>
        <time>2019-01-28T12:46:21Z</time>
      </trkpt>
      <trkpt lat="43.4863" lon="3.62367">
        <ele>109.4</ele>
        <time>2019-01-28T12:46:29Z</time>
      </trkpt>
      <trkpt lat="43.4861" lon="3.62436">
        <ele>110.2</ele>
        <time>2019-01-28T12:47:21Z</time>
      </trkpt>
      <trkpt lat="43.48604" lon="3.62455">
        <ele>109.8</ele>
        <time>2019-01-28T12:47:33Z</time>
      </trkpt>
      <trkpt lat="43.48603" lon="3.62463">
        <ele>110.2</ele>
        <time>2019-01-28T12:47:39Z</time>
      </trkpt>
      <trkpt lat="43.48602" lon="3.62468">
        <ele>110.2</ele>
        <time>2019-01-28T12:47:42Z</time>
      </trkpt>
      <trkpt lat="43.48602" lon="3.62472">
        <ele>110.2</ele>
        <time>2019-01-28T12:47:44Z</time>
      </trkpt>
      <trkpt lat="43.486" lon="3.6248">
        <ele>110.8</ele>
        <time>2019-01-28T12:47:49Z</time>
      </trkpt>
      <trkpt lat="43.48597" lon="3.62498">
        <ele>111.8</ele>
        <time>2019-01-28T12:47:58Z</time>
      </trkpt>
      <trkpt lat="43.48595" lon="3.62539">
        <ele>112.8</ele>
        <time>2019-01-28T12:48:24Z</time>
      </trkpt>
      <trkpt lat="43.48598" lon="3.62564">
        <ele>113</ele>
        <time>2019-01-28T12:48:39Z</time>
      </trkpt>
      <trkpt lat="43.48605" lon="3.62574">
        <ele>113.2</ele>
        <time>2019-01-28T12:48:44Z</time>
      </trkpt>
      <trkpt lat="43.48606" lon="3.62597">
        <ele>113.3</ele>
      </trkpt>
      <trkpt lat="43.48608" lon="3.62636">
        <ele>114</ele>
      </trkpt>
      <trkpt lat="43.4861" lon="3.62677">
        <ele>118.4</ele>
      </trkpt>
      <trkpt lat="43.48628" lon="3.62714">
        <ele>119.1</ele>
      </trkpt>
      <trkpt lat="43.48643" lon="3.62746">
        <ele>119.7</ele>
      </trkpt>
      <trkpt lat="43.48656" lon="3.62789">
        <ele>124.5</ele>
      </trkpt>
      <trkpt lat="43.4867" lon="3.62828">
        <ele>126.5</ele>
      </trkpt>
      <trkpt lat="43.4868" lon="3.62862">
        <ele>127.2</ele>
      </trkpt>
      <trkpt lat="43.48684" lon="3.62887">
        <ele>128</ele>
      </trkpt>
      <trkpt lat="43.48684" lon="3.62949">
        <ele>131</ele>
      </trkpt>
      <trkpt lat="43.48681" lon="3.63011">
        <ele>134.2</ele>
      </trkpt>
      <trkpt lat="43.48678" lon="3.63055">
        <ele>135.1</ele>
      </trkpt>
      <trkpt lat="43.48673" lon="3.63093">
        <ele>138.5</ele>
      </trkpt>
      <trkpt lat="43.48656" lon="3.63151">
        <ele>142</ele>
      </trkpt>
      <trkpt lat="43.48643" lon="3.63207">
        <ele>143.6</ele>
      </trkpt>
      <trkpt lat="43.48628" lon="3.6325">
        <ele>144.5</ele>
      </trkpt>
      <trkpt lat="43.48618" lon="3.63289">
        <ele>146.7</ele>
      </trkpt>
      <trkpt lat="43.48616" lon="3.63311">
        <ele>147.2</ele>
      </trkpt>
      <trkpt lat="43.48613" lon="3.63335">
        <ele>149.1</ele>
      </trkpt>
      <trkpt lat="43.48616" lon="3.63363">
        <ele>148.8</ele>
      </trkpt>
      <trkpt lat="43.48622" lon="3.63394">
        <ele>148.9</ele>
      </trkpt>
      <trkpt lat="43.48634" lon="3.63429">
        <ele>150</ele>
      </trkpt>
      <trkpt lat="43.48646" lon="3.63462">
        <ele>150.1</ele>
      </trkpt>
      <trkpt lat="43.48654" lon="3.63513">
        <ele>150.3</ele>
      </trkpt>
      <trkpt lat="43.48658" lon="3.63542">
        <ele>151</ele>
      </trkpt>
      <trkpt lat="43.48656" lon="3.63556">
        <ele>150.9</ele>
      </trkpt>
      <trkpt lat="43.48644" lon="3.63587">
        <ele>150</ele>
      </trkpt>
      <trkpt lat="43.48634" lon="3.63613">
        <ele>150</ele>
      </trkpt>
      <trkpt lat="43.48615" lon="3.63623">
        <ele>149.8</ele>
      </trkpt>
      <trkpt lat="43.48602" lon="3.63628">
        <ele>149.4</ele>
      </trkpt>
      <trkpt lat="43.48579" lon="3.63631">
        <ele>144.2</ele>
        <time>2019-01-28T13:01:53Z</time>
      </trkpt>
      <trkpt lat="43.48571" lon="3.63632">
        <ele>143</ele>
        <time>2019-01-28T13:01:59Z</time>
      </trkpt>
      <trkpt lat="43.48564" lon="3.63634">
        <ele>142</ele>
        <time>2019-01-28T13:02:04Z</time>
      </trkpt>
      <trkpt lat="43.48557" lon="3.63634">
        <ele>141.2</ele>
        <time>2019-01-28T13:02:10Z</time>
      </trkpt>
      <trkpt lat="43.48548" lon="3.63634">
        <ele>140.2</ele>
        <time>2019-01-28T13:02:17Z</time>
      </trkpt>
      <trkpt lat="43.48543" lon="3.63631">
        <ele>139</ele>
        <time>2019-01-28T13:02:23Z</time>
      </trkpt>
      <trkpt lat="43.48534" lon="3.63628">
        <ele>137.8</ele>
        <time>2019-01-28T13:02:35Z</time>
      </trkpt>
      <trkpt lat="43.48533" lon="3.63628">
        <ele>137.8</ele>
        <time>2019-01-28T13:02:36Z</time>
      </trkpt>
      <trkpt lat="43.4849" lon="3.63637">
        <ele>137.4</ele>
        <time>2019-01-28T13:03:20Z</time>
      </trkpt>
      <trkpt lat="43.48463" lon="3.63655">
        <ele>136.8</ele>
        <time>2019-01-28T13:03:41Z</time>
      </trkpt>
      <trkpt lat="43.48431" lon="3.63673">
        <ele>135.8</ele>
        <time>2019-01-28T13:04:05Z</time>
      </trkpt>
      <trkpt lat="43.48381" lon="3.63703">
        <ele>134.8</ele>
        <time>2019-01-28T13:04:42Z</time>
      </trkpt>
      <trkpt lat="43.4838" lon="3.63703">
        <ele>134.8</ele>
        <time>2019-01-28T13:04:43Z</time>
      </trkpt>
      <trkpt lat="43.48341" lon="3.63711">
        <ele>133.8</ele>
        <time>2019-01-28T13:05:11Z</time>
      </trkpt>
      <trkpt lat="43.483" lon="3.63712">
        <ele>132.8</ele>
        <time>2019-01-28T13:05:44Z</time>
      </trkpt>
      <trkpt lat="43.4829" lon="3.63709">
        <ele>132.8</ele>
        <time>2019-01-28T13:05:52Z</time>
      </trkpt>
      <trkpt lat="43.48251" lon="3.6369">
        <ele>132</ele>
        <time>2019-01-28T13:06:26Z</time>
      </trkpt>
      <trkpt lat="43.48199" lon="3.637">
        <ele>131.2</ele>
        <time>2019-01-28T13:07:04Z</time>
      </trkpt>
      <trkpt lat="43.48198" lon="3.63701">
        <ele>131</ele>
        <time>2019-01-28T13:07:05Z</time>
      </trkpt>
      <trkpt lat="43.48182" lon="3.6371">
        <ele>130</ele>
        <time>2019-01-28T13:07:17Z</time>
      </trkpt>
      <trkpt lat="43.48171" lon="3.63716">
        <ele>129</ele>
        <time>2019-01-28T13:07:26Z</time>
      </trkpt>
      <trkpt lat="43.48162" lon="3.63725">
        <ele>128</ele>
        <time>2019-01-28T13:07:34Z</time>
      </trkpt>
      <trkpt lat="43.48151" lon="3.63732">
        <ele>126.8</ele>
        <time>2019-01-28T13:07:42Z</time>
      </trkpt>
      <trkpt lat="43.48149" lon="3.63732">
        <ele>126.8</ele>
        <time>2019-01-28T13:07:43Z</time>
      </trkpt>
      <trkpt lat="43.48143" lon="3.63737">
        <ele>125.8</ele>
        <time>2019-01-28T13:07:49Z</time>
      </trkpt>
      <trkpt lat="43.48142" lon="3.63738">
        <ele>125.6</ele>
        <time>2019-01-28T13:07:50Z</time>
      </trkpt>
      <trkpt lat="43.48131" lon="3.63744">
        <ele>124.6</ele>
        <time>2019-01-28T13:07:59Z</time>
      </trkpt>
      <trkpt lat="43.48119" lon="3.63751">
        <ele>123.8</ele>
        <time>2019-01-28T13:08:08Z</time>
      </trkpt>
      <trkpt lat="43.48105" lon="3.63757">
        <ele>122.8</ele>
        <time>2019-01-28T13:08:19Z</time>
      </trkpt>
      <trkpt lat="43.48089" lon="3.63763">
        <ele>121.8</ele>
        <time>2019-01-28T13:08:33Z</time>
      </trkpt>
      <trkpt lat="43.48055" lon="3.63783">
        <ele>120.6</ele>
        <time>2019-01-28T13:09:00Z</time>
      </trkpt>
      <trkpt lat="43.48004" lon="3.6381">
        <ele>120.6</ele>
        <time>2019-01-28T13:09:42Z</time>
      </trkpt>
      <trkpt lat="43.47949" lon="3.63811">
        <ele>120</ele>
        <time>2019-01-28T13:10:25Z</time>
      </trkpt>
      <trkpt lat="43.47947" lon="3.63811">
        <ele>120</ele>
        <time>2019-01-28T13:10:27Z</time>
      </trkpt>
      <trkpt lat="43.47909" lon="3.63806">
        <ele>119</ele>
        <time>2019-01-28T13:10:55Z</time>
      </trkpt>
      <trkpt lat="43.47886" lon="3.638">
        <ele>118.2</ele>
        <time>2019-01-28T13:11:13Z</time>
      </trkpt>
      <trkpt lat="43.4787" lon="3.63794">
        <ele>117.6</ele>
        <time>2019-01-28T13:11:28Z</time>
      </trkpt>
      <trkpt lat="43.47868" lon="3.63793">
        <ele>117</ele>
        <time>2019-01-28T13:11:31Z</time>
      </trkpt>
      <trkpt lat="43.47864" lon="3.63792">
        <ele>116.8</ele>
        <time>2019-01-28T13:11:35Z</time>
      </trkpt>
      <trkpt lat="43.47855" lon="3.63786">
        <ele>116</ele>
        <time>2019-01-28T13:11:43Z</time>
      </trkpt>
      <trkpt lat="43.47833" lon="3.6377">
        <ele>115</ele>
        <time>2019-01-28T13:12:01Z</time>
      </trkpt>
      <trkpt lat="43.47821" lon="3.63761">
        <ele>114</ele>
        <time>2019-01-28T13:12:11Z</time>
      </trkpt>
      <trkpt lat="43.4781" lon="3.63752">
        <ele>112.8</ele>
        <time>2019-01-28T13:12:21Z</time>
      </trkpt>
      <trkpt lat="43.47796" lon="3.63737">
        <ele>111.8</ele>
        <time>2019-01-28T13:12:32Z</time>
      </trkpt>
      <trkpt lat="43.47784" lon="3.63724">
        <ele>110.8</ele>
        <time>2019-01-28T13:12:43Z</time>
      </trkpt>
      <trkpt lat="43.47777" lon="3.63711">
        <ele>109.8</ele>
        <time>2019-01-28T13:12:54Z</time>
      </trkpt>
      <trkpt lat="43.47772" lon="3.63701">
        <ele>108.8</ele>
        <time>2019-01-28T13:13:01Z</time>
      </trkpt>
      <trkpt lat="43.47764" lon="3.63695">
        <ele>107.8</ele>
        <time>2019-01-28T13:13:08Z</time>
      </trkpt>
      <trkpt lat="43.4774" lon="3.6369">
        <ele>112.6</ele>
      </trkpt>
      <trkpt lat="43.47726" lon="3.63659">
        <ele>117.3</ele>
      </trkpt>
      <trkpt lat="43.47736" lon="3.63699">
        <ele>112</ele>
      </trkpt>
      <trkpt lat="43.47696" lon="3.63799">
        <ele>102</ele>
      </trkpt>
      <trkpt lat="43.47674" lon="3.63833">
        <ele>99</ele>
      </trkpt>
      <trkpt lat="43.47664" lon="3.63897">
        <ele>93</ele>
      </trkpt>
      <trkpt lat="43.47655" lon="3.63981">
        <ele>89</ele>
      </trkpt>
      <trkpt lat="43.4764" lon="3.64079">
        <ele>85</ele>
      </trkpt>
      <trkpt lat="43.47573" lon="3.64011">
        <ele>82.5</ele>
      </trkpt>
      <trkpt lat="43.47531" lon="3.63968">
        <ele>83.3</ele>
      </trkpt>
      <trkpt lat="43.4751" lon="3.63949">
        <ele>83.5</ele>
      </trkpt>
      <trkpt lat="43.47461" lon="3.63929">
        <ele>82.1</ele>
      </trkpt>
      <trkpt lat="43.47406" lon="3.63913">
        <ele>83.3</ele>
      </trkpt>
      <trkpt lat="43.47358" lon="3.63877">
        <ele>83.4</ele>
      </trkpt>
      <trkpt lat="43.47322" lon="3.63834">
        <ele>78</ele>
        <time>2019-01-28T13:23:34Z</time>
      </trkpt>
      <trkpt lat="43.47319" lon="3.63834">
        <ele>77.4</ele>
        <time>2019-01-28T13:23:37Z</time>
      </trkpt>
      <trkpt lat="43.47304" lon="3.63827">
        <ele>77.2</ele>
        <time>2019-01-28T13:23:52Z</time>
      </trkpt>
      <trkpt lat="43.47292" lon="3.6381">
        <ele>77.8</ele>
        <time>2019-01-28T13:24:08Z</time>
      </trkpt>
      <trkpt lat="43.47288" lon="3.63803">
        <ele>77.8</ele>
        <time>2019-01-28T13:24:14Z</time>
      </trkpt>
      <trkpt lat="43.47285" lon="3.63798">
        <ele>78</ele>
        <time>2019-01-28T13:24:18Z</time>
      </trkpt>
      <trkpt lat="43.47277" lon="3.63783">
        <ele>79</ele>
        <time>2019-01-28T13:24:30Z</time>
      </trkpt>
      <trkpt lat="43.4727" lon="3.63779">
        <ele>79</ele>
        <time>2019-01-28T13:24:35Z</time>
      </trkpt>
      <trkpt lat="43.4726" lon="3.63774">
        <ele>79.2</ele>
        <time>2019-01-28T13:24:41Z</time>
      </trkpt>
      <trkpt lat="43.4723" lon="3.63763">
        <ele>80.2</ele>
        <time>2019-01-28T13:24:59Z</time>
      </trkpt>
      <trkpt lat="43.47205" lon="3.6375">
        <ele>81.2</ele>
        <time>2019-01-28T13:25:16Z</time>
      </trkpt>
      <trkpt lat="43.47167" lon="3.63737">
        <ele>82.4</ele>
        <time>2019-01-28T13:25:43Z</time>
      </trkpt>
      <trkpt lat="43.47144" lon="3.63721">
        <ele>83.6</ele>
        <time>2019-01-28T13:26:01Z</time>
      </trkpt>
      <trkpt lat="43.47104" lon="3.63689">
        <ele>84.4</ele>
        <time>2019-01-28T13:26:34Z</time>
      </trkpt>
      <trkpt lat="43.47095" lon="3.63681">
        <ele>85</ele>
        <time>2019-01-28T13:26:41Z</time>
      </trkpt>
      <trkpt lat="43.47056" lon="3.63629">
        <ele>84.6</ele>
        <time>2019-01-28T13:27:20Z</time>
      </trkpt>
      <trkpt lat="43.47049" lon="3.6362">
        <ele>84</ele>
        <time>2019-01-28T13:27:27Z</time>
      </trkpt>
      <trkpt lat="43.47033" lon="3.63599">
        <ele>83</ele>
        <time>2019-01-28T13:27:44Z</time>
      </trkpt>
      <trkpt lat="43.47019" lon="3.63586">
        <ele>82</ele>
        <time>2019-01-28T13:27:56Z</time>
      </trkpt>
      <trkpt lat="43.46999" lon="3.63569">
        <ele>81</ele>
        <time>2019-01-28T13:28:12Z</time>
      </trkpt>
      <trkpt lat="43.46987" lon="3.63554">
        <ele>80</ele>
        <time>2019-01-28T13:28:24Z</time>
      </trkpt>
      <trkpt lat="43.46973" lon="3.63535">
        <ele>79</ele>
        <time>2019-01-28T13:28:39Z</time>
      </trkpt>
      <trkpt lat="43.4696" lon="3.6352">
        <ele>77.8</ele>
        <time>2019-01-28T13:28:53Z</time>
      </trkpt>
      <trkpt lat="43.46961" lon="3.63518">
        <ele>77.8</ele>
        <time>2019-01-28T13:28:55Z</time>
      </trkpt>
      <trkpt lat="43.46974" lon="3.63517">
        <ele>79</ele>
        <time>2019-01-28T13:29:07Z</time>
      </trkpt>
      <trkpt lat="43.46987" lon="3.63525">
        <ele>80.2</ele>
        <time>2019-01-28T13:29:19Z</time>
      </trkpt>
      <trkpt lat="43.46996" lon="3.63529">
        <ele>81.2</ele>
        <time>2019-01-28T13:29:28Z</time>
      </trkpt>
      <trkpt lat="43.47005" lon="3.63533">
        <ele>82.4</ele>
        <time>2019-01-28T13:29:36Z</time>
      </trkpt>
      <trkpt lat="43.47018" lon="3.63538">
        <ele>83.4</ele>
        <time>2019-01-28T13:29:47Z</time>
      </trkpt>
      <trkpt lat="43.47027" lon="3.63541">
        <ele>84.4</ele>
        <time>2019-01-28T13:29:55Z</time>
      </trkpt>
      <trkpt lat="43.47037" lon="3.63546">
        <ele>85.6</ele>
        <time>2019-01-28T13:30:04Z</time>
      </trkpt>
      <trkpt lat="43.47048" lon="3.6355">
        <ele>86.6</ele>
        <time>2019-01-28T13:30:13Z</time>
      </trkpt>
      <trkpt lat="43.47059" lon="3.63554">
        <ele>88</ele>
        <time>2019-01-28T13:30:22Z</time>
      </trkpt>
      <trkpt lat="43.47068" lon="3.63558">
        <ele>89</ele>
        <time>2019-01-28T13:30:30Z</time>
      </trkpt>
      <trkpt lat="43.47076" lon="3.63561">
        <ele>90</ele>
        <time>2019-01-28T13:30:38Z</time>
      </trkpt>
      <trkpt lat="43.47088" lon="3.63568">
        <ele>91.2</ele>
        <time>2019-01-28T13:30:48Z</time>
      </trkpt>
      <trkpt lat="43.47097" lon="3.63572">
        <ele>92.6</ele>
        <time>2019-01-28T13:30:56Z</time>
      </trkpt>
      <trkpt lat="43.47102" lon="3.63571">
        <ele>93.2</ele>
        <time>2019-01-28T13:31:01Z</time>
      </trkpt>
      <trkpt lat="43.47103" lon="3.63568">
        <ele>93.6</ele>
        <time>2019-01-28T13:31:03Z</time>
      </trkpt>
      <trkpt lat="43.47106" lon="3.63566">
        <ele>94.2</ele>
        <time>2019-01-28T13:31:07Z</time>
      </trkpt>
      <trkpt lat="43.47109" lon="3.63565">
        <ele>94.6</ele>
        <time>2019-01-28T13:31:10Z</time>
      </trkpt>
      <trkpt lat="43.47119" lon="3.6356">
        <ele>95.6</ele>
        <time>2019-01-28T13:31:20Z</time>
      </trkpt>
      <trkpt lat="43.47122" lon="3.63555">
        <ele>96.8</ele>
        <time>2019-01-28T13:31:25Z</time>
      </trkpt>
      <trkpt lat="43.47124" lon="3.63548">
        <ele>97.4</ele>
        <time>2019-01-28T13:31:31Z</time>
      </trkpt>
      <trkpt lat="43.47125" lon="3.63545">
        <ele>97.8</ele>
        <time>2019-01-28T13:31:34Z</time>
      </trkpt>
      <trkpt lat="43.47128" lon="3.63534">
        <ele>98.8</ele>
        <time>2019-01-28T13:31:43Z</time>
      </trkpt>
      <trkpt lat="43.47129" lon="3.63532">
        <ele>99</ele>
        <time>2019-01-28T13:31:45Z</time>
      </trkpt>
      <trkpt lat="43.47134" lon="3.63521">
        <ele>99.8</ele>
        <time>2019-01-28T13:31:53Z</time>
      </trkpt>
      <trkpt lat="43.4714" lon="3.6351">
        <ele>100.8</ele>
        <time>2019-01-28T13:32:01Z</time>
      </trkpt>
      <trkpt lat="43.47141" lon="3.63506">
        <ele>101</ele>
        <time>2019-01-28T13:32:04Z</time>
      </trkpt>
      <trkpt lat="43.47145" lon="3.63501">
        <ele>102</ele>
        <time>2019-01-28T13:32:09Z</time>
      </trkpt>
      <trkpt lat="43.47152" lon="3.63492">
        <ele>103.2</ele>
        <time>2019-01-28T13:32:17Z</time>
      </trkpt>
      <trkpt lat="43.47158" lon="3.63485">
        <ele>104.2</ele>
        <time>2019-01-28T13:32:24Z</time>
      </trkpt>
      <trkpt lat="43.47164" lon="3.63478">
        <ele>105.2</ele>
        <time>2019-01-28T13:32:30Z</time>
      </trkpt>
      <trkpt lat="43.47174" lon="3.63469">
        <ele>106.4</ele>
        <time>2019-01-28T13:32:39Z</time>
      </trkpt>
      <trkpt lat="43.4718" lon="3.63465">
        <ele>107.4</ele>
        <time>2019-01-28T13:32:45Z</time>
      </trkpt>
      <trkpt lat="43.47196" lon="3.63449">
        <ele>108.4</ele>
        <time>2019-01-28T13:33:01Z</time>
      </trkpt>
      <trkpt lat="43.47224" lon="3.63426">
        <ele>109.6</ele>
        <time>2019-01-28T13:33:26Z</time>
      </trkpt>
      <trkpt lat="43.47245" lon="3.63415">
        <ele>110.8</ele>
        <time>2019-01-28T13:33:46Z</time>
      </trkpt>
      <trkpt lat="43.47271" lon="3.63392">
        <ele>111.8</ele>
        <time>2019-01-28T13:34:06Z</time>
      </trkpt>
      <trkpt lat="43.47291" lon="3.63375">
        <ele>112.8</ele>
        <time>2019-01-28T13:34:21Z</time>
      </trkpt>
      <trkpt lat="43.47305" lon="3.63362">
        <ele>114.2</ele>
        <time>2019-01-28T13:34:33Z</time>
      </trkpt>
      <trkpt lat="43.47321" lon="3.63349">
        <ele>115.2</ele>
        <time>2019-01-28T13:34:46Z</time>
      </trkpt>
      <trkpt lat="43.47345" lon="3.63332">
        <ele>116.4</ele>
        <time>2019-01-28T13:35:04Z</time>
      </trkpt>
      <trkpt lat="43.47359" lon="3.63322">
        <ele>117.4</ele>
        <time>2019-01-28T13:35:16Z</time>
      </trkpt>
      <trkpt lat="43.47364" lon="3.63319">
        <ele>117.8</ele>
        <time>2019-01-28T13:35:22Z</time>
      </trkpt>
      <trkpt lat="43.47375" lon="3.63312">
        <ele>118.2</ele>
        <time>2019-01-28T13:35:33Z</time>
      </trkpt>
      <trkpt lat="43.47386" lon="3.63309">
        <ele>118.8</ele>
        <time>2019-01-28T13:35:42Z</time>
      </trkpt>
      <trkpt lat="43.4744" lon="3.633">
        <ele>119.8</ele>
        <time>2019-01-28T13:36:27Z</time>
      </trkpt>
      <trkpt lat="43.47442" lon="3.63298">
        <ele>120</ele>
        <time>2019-01-28T13:36:29Z</time>
      </trkpt>
      <trkpt lat="43.47469" lon="3.63236">
        <ele>119.8</ele>
        <time>2019-01-28T13:37:12Z</time>
      </trkpt>
      <trkpt lat="43.47468" lon="3.63233">
        <ele>119.8</ele>
        <time>2019-01-28T13:37:13Z</time>
      </trkpt>
      <trkpt lat="43.47469" lon="3.632">
        <ele>118.8</ele>
        <time>2019-01-28T13:37:34Z</time>
      </trkpt>
      <trkpt lat="43.4747" lon="3.63193">
        <ele>118.6</ele>
        <time>2019-01-28T13:37:39Z</time>
      </trkpt>
      <trkpt lat="43.47494" lon="3.63131">
        <ele>115.8</ele>
        <time>2019-01-28T13:38:33Z</time>
      </trkpt>
      <trkpt lat="43.47507" lon="3.63113">
        <ele>114.8</ele>
        <time>2019-01-28T13:38:49Z</time>
      </trkpt>
      <trkpt lat="43.47518" lon="3.6309">
        <ele>114</ele>
        <time>2019-01-28T13:39:05Z</time>
      </trkpt>
      <trkpt lat="43.47524" lon="3.63073">
        <ele>112.8</ele>
        <time>2019-01-28T13:39:16Z</time>
      </trkpt>
      <trkpt lat="43.47527" lon="3.63058">
        <ele>111.8</ele>
        <time>2019-01-28T13:39:27Z</time>
      </trkpt>
      <trkpt lat="43.47547" lon="3.63039">
        <ele>110.8</ele>
        <time>2019-01-28T13:39:59Z</time>
      </trkpt>
      <trkpt lat="43.47562" lon="3.63017">
        <ele>109.8</ele>
        <time>2019-01-28T13:40:21Z</time>
      </trkpt>
      <trkpt lat="43.47582" lon="3.63011">
        <ele>117.2</ele>
      </trkpt>
      <trkpt lat="43.47589" lon="3.63003">
        <ele>118</ele>
      </trkpt>
      <trkpt lat="43.47597" lon="3.62993">
        <ele>117</ele>
      </trkpt>
      <trkpt lat="43.47596" lon="3.62979">
        <ele>116</ele>
      </trkpt>
      <trkpt lat="43.47589" lon="3.62965">
        <ele>116</ele>
      </trkpt>
      <trkpt lat="43.47579" lon="3.62968">
        <ele>115</ele>
      </trkpt>
      <trkpt lat="43.47574" lon="3.62981">
        <ele>115</ele>
      </trkpt>
      <trkpt lat="43.47571" lon="3.62998">
        <ele>116</ele>
      </trkpt>
      <trkpt lat="43.47565" lon="3.63015">
        <ele>117</ele>
      </trkpt>
      <trkpt lat="43.47551" lon="3.63033">
        <ele>117</ele>
      </trkpt>
      <trkpt lat="43.47531" lon="3.63053">
        <ele>117</ele>
      </trkpt>
      <trkpt lat="43.47519" lon="3.6306">
        <ele>117</ele>
      </trkpt>
      <trkpt lat="43.47519" lon="3.6305">
        <ele>117</ele>
      </trkpt>
      <trkpt lat="43.47505" lon="3.6304">
        <ele>116</ele>
      </trkpt>
      <trkpt lat="43.4749" lon="3.63028">
        <ele>115.1</ele>
      </trkpt>
      <trkpt lat="43.47486" lon="3.63006">
        <ele>115</ele>
      </trkpt>
      <trkpt lat="43.47503" lon="3.62976">
        <ele>112.4</ele>
        <time>2019-01-28T13:44:01Z</time>
      </trkpt>
      <trkpt lat="43.47513" lon="3.62947">
        <ele>111.4</ele>
        <time>2019-01-28T13:44:19Z</time>
      </trkpt>
      <trkpt lat="43.47519" lon="3.62929">
        <ele>110.2</ele>
        <time>2019-01-28T13:44:29Z</time>
      </trkpt>
      <trkpt lat="43.47524" lon="3.62904">
        <ele>109</ele>
        <time>2019-01-28T13:44:42Z</time>
      </trkpt>
      <trkpt lat="43.47535" lon="3.62894">
        <ele>108.2</ele>
        <time>2019-01-28T13:44:54Z</time>
      </trkpt>
      <trkpt lat="43.47543" lon="3.62898">
        <ele>107.2</ele>
        <time>2019-01-28T13:45:01Z</time>
      </trkpt>
      <trkpt lat="43.47552" lon="3.62901">
        <ele>106.2</ele>
        <time>2019-01-28T13:45:08Z</time>
      </trkpt>
      <trkpt lat="43.47565" lon="3.62889">
        <ele>105.4</ele>
        <time>2019-01-28T13:45:20Z</time>
      </trkpt>
      <trkpt lat="43.4757" lon="3.62814">
        <ele>104.4</ele>
        <time>2019-01-28T13:46:02Z</time>
      </trkpt>
      <trkpt lat="43.47567" lon="3.62786">
        <ele>103.4</ele>
        <time>2019-01-28T13:46:17Z</time>
      </trkpt>
      <trkpt lat="43.47566" lon="3.62766">
        <ele>102.4</ele>
        <time>2019-01-28T13:46:29Z</time>
      </trkpt>
      <trkpt lat="43.47572" lon="3.62714">
        <ele>101.4</ele>
        <time>2019-01-28T13:47:00Z</time>
      </trkpt>
      <trkpt lat="43.47577" lon="3.62683">
        <ele>101.6</ele>
        <time>2019-01-28T13:47:18Z</time>
      </trkpt>
      <trkpt lat="43.47579" lon="3.62676">
        <ele>102.2</ele>
        <time>2019-01-28T13:47:22Z</time>
      </trkpt>
      <trkpt lat="43.47583" lon="3.62653">
        <ele>100.8</ele>
        <time>2019-01-28T13:47:37Z</time>
      </trkpt>
      <trkpt lat="43.4759" lon="3.62664">
        <ele>100.6</ele>
        <time>2019-01-28T13:47:50Z</time>
      </trkpt>
      <trkpt lat="43.47602" lon="3.62692">
        <ele>101.6</ele>
        <time>2019-01-28T13:48:09Z</time>
      </trkpt>
      <trkpt lat="43.47633" lon="3.62713">
        <ele>103</ele>
        <time>2019-01-28T13:48:34Z</time>
      </trkpt>
      <trkpt lat="43.47648" lon="3.62744">
        <ele>104</ele>
        <time>2019-01-28T13:48:55Z</time>
      </trkpt>
      <trkpt lat="43.47653" lon="3.62758">
        <ele>105</ele>
        <time>2019-01-28T13:49:05Z</time>
      </trkpt>
      <trkpt lat="43.47671" lon="3.62782">
        <ele>106.4</ele>
        <time>2019-01-28T13:49:22Z</time>
      </trkpt>
      <trkpt lat="43.47703" lon="3.62796">
        <ele>107.4</ele>
        <time>2019-01-28T13:49:47Z</time>
      </trkpt>
      <trkpt lat="43.47717" lon="3.628">
        <ele>108.4</ele>
        <time>2019-01-28T13:49:57Z</time>
      </trkpt>
      <trkpt lat="43.4774" lon="3.62817">
        <ele>108.4</ele>
        <time>2019-01-28T13:50:16Z</time>
      </trkpt>
      <trkpt lat="43.47742" lon="3.62836">
        <ele>109.8</ele>
        <time>2019-01-28T13:50:26Z</time>
      </trkpt>
      <trkpt lat="43.47738" lon="3.62865">
        <ele>110.8</ele>
        <time>2019-01-28T13:50:43Z</time>
      </trkpt>
      <trkpt lat="43.4773" lon="3.62885">
        <ele>111.8</ele>
        <time>2019-01-28T13:50:56Z</time>
      </trkpt>
      <trkpt lat="43.4773" lon="3.62905">
        <ele>113</ele>
        <time>2019-01-28T13:51:07Z</time>
      </trkpt>
      <trkpt lat="43.47734" lon="3.62927">
        <ele>114</ele>
        <time>2019-01-28T13:51:20Z</time>
      </trkpt>
      <trkpt lat="43.47736" lon="3.62942">
        <ele>115</ele>
        <time>2019-01-28T13:51:29Z</time>
      </trkpt>
      <trkpt lat="43.47734" lon="3.62961">
        <ele>116</ele>
        <time>2019-01-28T13:51:40Z</time>
      </trkpt>
      <trkpt lat="43.47735" lon="3.62982">
        <ele>117.4</ele>
        <time>2019-01-28T13:51:54Z</time>
      </trkpt>
      <trkpt lat="43.47742" lon="3.63005">
        <ele>118.4</ele>
        <time>2019-01-28T13:52:09Z</time>
      </trkpt>
      <trkpt lat="43.47746" lon="3.63016">
        <ele>119.6</ele>
        <time>2019-01-28T13:52:16Z</time>
      </trkpt>
      <trkpt lat="43.4775" lon="3.63022">
        <ele>120.8</ele>
        <time>2019-01-28T13:52:21Z</time>
      </trkpt>
      <trkpt lat="43.47759" lon="3.63037">
        <ele>122.2</ele>
        <time>2019-01-28T13:52:33Z</time>
      </trkpt>
      <trkpt lat="43.47774" lon="3.63055">
        <ele>123.2</ele>
        <time>2019-01-28T13:52:48Z</time>
      </trkpt>
      <trkpt lat="43.47779" lon="3.63069">
        <ele>124.2</ele>
        <time>2019-01-28T13:52:57Z</time>
      </trkpt>
      <trkpt lat="43.47788" lon="3.63092">
        <ele>125.4</ele>
        <time>2019-01-28T13:53:12Z</time>
      </trkpt>
      <trkpt lat="43.47793" lon="3.63104">
        <ele>126.4</ele>
        <time>2019-01-28T13:53:21Z</time>
      </trkpt>
      <trkpt lat="43.47799" lon="3.63114">
        <ele>127.4</ele>
        <time>2019-01-28T13:53:29Z</time>
      </trkpt>
      <trkpt lat="43.47807" lon="3.6313">
        <ele>128.6</ele>
        <time>2019-01-28T13:53:40Z</time>
      </trkpt>
      <trkpt lat="43.47813" lon="3.63141">
        <ele>129.8</ele>
        <time>2019-01-28T13:53:48Z</time>
      </trkpt>
      <trkpt lat="43.4782" lon="3.63161">
        <ele>130.8</ele>
        <time>2019-01-28T13:54:02Z</time>
      </trkpt>
      <trkpt lat="43.47823" lon="3.63174">
        <ele>131.8</ele>
        <time>2019-01-28T13:54:11Z</time>
      </trkpt>
      <trkpt lat="43.47826" lon="3.63183">
        <ele>133</ele>
        <time>2019-01-28T13:54:18Z</time>
      </trkpt>
      <trkpt lat="43.47837" lon="3.63209">
        <ele>134</ele>
        <time>2019-01-28T13:54:35Z</time>
      </trkpt>
      <trkpt lat="43.47841" lon="3.6322">
        <ele>135</ele>
        <time>2019-01-28T13:54:43Z</time>
      </trkpt>
      <trkpt lat="43.47851" lon="3.63229">
        <ele>136.2</ele>
        <time>2019-01-28T13:54:53Z</time>
      </trkpt>
      <trkpt lat="43.47859" lon="3.63226">
        <ele>137.2</ele>
        <time>2019-01-28T13:55:01Z</time>
      </trkpt>
      <trkpt lat="43.47864" lon="3.63219">
        <ele>138.2</ele>
        <time>2019-01-28T13:55:08Z</time>
      </trkpt>
      <trkpt lat="43.47868" lon="3.63211">
        <ele>139.4</ele>
        <time>2019-01-28T13:55:16Z</time>
      </trkpt>
      <trkpt lat="43.47873" lon="3.63197">
        <ele>140.6</ele>
        <time>2019-01-28T13:55:28Z</time>
      </trkpt>
      <trkpt lat="43.47873" lon="3.6319">
        <ele>141.2</ele>
        <time>2019-01-28T13:55:32Z</time>
      </trkpt>
      <trkpt lat="43.47874" lon="3.63183">
        <ele>141.4</ele>
        <time>2019-01-28T13:55:36Z</time>
      </trkpt>
      <trkpt lat="43.47875" lon="3.6317">
        <ele>144</ele>
      </trkpt>
      <trkpt lat="43.47875" lon="3.63149">
        <ele>143</ele>
      </trkpt>
      <trkpt lat="43.47876" lon="3.63121">
        <ele>139.8</ele>
        <time>2019-01-28T13:56:12Z</time>
      </trkpt>
      <trkpt lat="43.47875" lon="3.63117">
        <ele>139.6</ele>
        <time>2019-01-28T13:56:14Z</time>
      </trkpt>
      <trkpt lat="43.47872" lon="3.63107">
        <ele>138.6</ele>
        <time>2019-01-28T13:56:21Z</time>
      </trkpt>
      <trkpt lat="43.47869" lon="3.63095">
        <ele>137.6</ele>
        <time>2019-01-28T13:56:29Z</time>
      </trkpt>
      <trkpt lat="43.47867" lon="3.6308">
        <ele>136.4</ele>
        <time>2019-01-28T13:56:38Z</time>
      </trkpt>
      <trkpt lat="43.47866" lon="3.63068">
        <ele>135.2</ele>
        <time>2019-01-28T13:56:46Z</time>
      </trkpt>
      <trkpt lat="43.47865" lon="3.63058">
        <ele>134.2</ele>
        <time>2019-01-28T13:56:53Z</time>
      </trkpt>
      <trkpt lat="43.47864" lon="3.63046">
        <ele>133.2</ele>
        <time>2019-01-28T13:57:01Z</time>
      </trkpt>
      <trkpt lat="43.47864" lon="3.6303">
        <ele>132.2</ele>
        <time>2019-01-28T13:57:09Z</time>
      </trkpt>
      <trkpt lat="43.47865" lon="3.63017">
        <ele>131</ele>
        <time>2019-01-28T13:57:16Z</time>
      </trkpt>
      <trkpt lat="43.47867" lon="3.63006">
        <ele>130</ele>
        <time>2019-01-28T13:57:23Z</time>
      </trkpt>
      <trkpt lat="43.47869" lon="3.62995">
        <ele>128.8</ele>
        <time>2019-01-28T13:57:31Z</time>
      </trkpt>
      <trkpt lat="43.47874" lon="3.62978">
        <ele>127.6</ele>
        <time>2019-01-28T13:57:42Z</time>
      </trkpt>
      <trkpt lat="43.47876" lon="3.6297">
        <ele>126.6</ele>
        <time>2019-01-28T13:57:47Z</time>
      </trkpt>
      <trkpt lat="43.47878" lon="3.62958">
        <ele>125.8</ele>
        <time>2019-01-28T13:57:54Z</time>
      </trkpt>
      <trkpt lat="43.47879" lon="3.62942">
        <ele>124.6</ele>
        <time>2019-01-28T13:58:04Z</time>
      </trkpt>
      <trkpt lat="43.47879" lon="3.62934">
        <ele>123.6</ele>
        <time>2019-01-28T13:58:08Z</time>
      </trkpt>
      <trkpt lat="43.4788" lon="3.62927">
        <ele>122.4</ele>
        <time>2019-01-28T13:58:13Z</time>
      </trkpt>
      <trkpt lat="43.4788" lon="3.62926">
        <ele>122.2</ele>
        <time>2019-01-28T13:58:14Z</time>
      </trkpt>
      <trkpt lat="43.47868" lon="3.62885">
        <ele>122</ele>
      </trkpt>
      <trkpt lat="43.47865" lon="3.62861">
        <ele>121</ele>
      </trkpt>
      <trkpt lat="43.47861" lon="3.62839">
        <ele>120</ele>
      </trkpt>
      <trkpt lat="43.47864" lon="3.62817">
        <ele>111.6</ele>
        <time>2019-01-28T13:59:46Z</time>
      </trkpt>
      <trkpt lat="43.47863" lon="3.62807">
        <ele>110.4</ele>
        <time>2019-01-28T13:59:52Z</time>
      </trkpt>
      <trkpt lat="43.47861" lon="3.62795">
        <ele>109.4</ele>
        <time>2019-01-28T13:59:59Z</time>
      </trkpt>
      <trkpt lat="43.47859" lon="3.62765">
        <ele>108.2</ele>
        <time>2019-01-28T14:00:18Z</time>
      </trkpt>
      <trkpt lat="43.47857" lon="3.62747">
        <ele>107.2</ele>
        <time>2019-01-28T14:00:29Z</time>
      </trkpt>
      <trkpt lat="43.47852" lon="3.62735">
        <ele>106.2</ele>
        <time>2019-01-28T14:00:36Z</time>
      </trkpt>
      <trkpt lat="43.47827" lon="3.62714">
        <ele>110.1</ele>
      </trkpt>
      <trkpt lat="43.47813" lon="3.62707">
        <ele>110</ele>
      </trkpt>
      <trkpt lat="43.478" lon="3.62693">
        <ele>109.6</ele>
      </trkpt>
      <trkpt lat="43.47795" lon="3.62676">
        <ele>109.5</ele>
      </trkpt>
      <trkpt lat="43.47796" lon="3.62649">
        <ele>108.3</ele>
      </trkpt>
      <trkpt lat="43.47808" lon="3.62594">
        <ele>107.6</ele>
      </trkpt>
      <trkpt lat="43.47816" lon="3.62561">
        <ele>106</ele>
      </trkpt>
      <trkpt lat="43.47824" lon="3.62556">
        <ele>106</ele>
      </trkpt>
      <trkpt lat="43.47845" lon="3.62564">
        <ele>106.9</ele>
      </trkpt>
      <trkpt lat="43.47858" lon="3.6255">
        <ele>107</ele>
      </trkpt>
      <trkpt lat="43.47869" lon="3.62527">
        <ele>107</ele>
      </trkpt>
      <trkpt lat="43.47877" lon="3.62503">
        <ele>101</ele>
        <time>2019-01-28T14:03:54Z</time>
      </trkpt>
      <trkpt lat="43.47877" lon="3.62491">
        <ele>100.4</ele>
        <time>2019-01-28T14:04:03Z</time>
      </trkpt>
      <trkpt lat="43.47871" lon="3.62445">
        <ele>99.6</ele>
        <time>2019-01-28T14:04:30Z</time>
      </trkpt>
      <trkpt lat="43.47865" lon="3.62431">
        <ele>98.6</ele>
        <time>2019-01-28T14:04:38Z</time>
      </trkpt>
      <trkpt lat="43.47845" lon="3.62401">
        <ele>103</ele>
      </trkpt>
      <trkpt lat="43.47825" lon="3.62388">
        <ele>102</ele>
      </trkpt>
      <trkpt lat="43.47806" lon="3.62373">
        <ele>102.3</ele>
      </trkpt>
      <trkpt lat="43.47802" lon="3.62356">
        <ele>102</ele>
      </trkpt>
      <trkpt lat="43.47816" lon="3.6234">
        <ele>101</ele>
      </trkpt>
      <trkpt lat="43.47838" lon="3.62299">
        <ele>103</ele>
      </trkpt>
      <trkpt lat="43.47853" lon="3.62261">
        <ele>104</ele>
      </trkpt>
      <trkpt lat="43.47858" lon="3.62237">
        <ele>105</ele>
      </trkpt>
      <trkpt lat="43.47878" lon="3.62197">
        <ele>106</ele>
      </trkpt>
      <trkpt lat="43.47884" lon="3.62173">
        <ele>107</ele>
      </trkpt>
      <trkpt lat="43.4789" lon="3.62151">
        <ele>106.2</ele>
      </trkpt>
      <trkpt lat="43.47896" lon="3.62129">
        <ele>105.8</ele>
      </trkpt>
      <trkpt lat="43.47903" lon="3.62097">
        <ele>105.3</ele>
      </trkpt>
      <trkpt lat="43.47906" lon="3.62084">
        <ele>105.1</ele>
      </trkpt>
      <trkpt lat="43.4791" lon="3.62072">
        <ele>103.6</ele>
      </trkpt>
      <trkpt lat="43.47915" lon="3.62057">
        <ele>102.8</ele>
      </trkpt>
      <trkpt lat="43.47927" lon="3.62033">
        <ele>103.3</ele>
      </trkpt>
      <trkpt lat="43.47932" lon="3.62023">
        <ele>102.9</ele>
      </trkpt>
      <trkpt lat="43.47936" lon="3.62014">
        <ele>95.2</ele>
        <time>2019-01-28T14:09:49Z</time>
      </trkpt>
      <trkpt lat="43.47939" lon="3.61989">
        <ele>94.2</ele>
        <time>2019-01-28T14:10:02Z</time>
      </trkpt>
      <trkpt lat="43.4794" lon="3.61988">
        <ele>93.8</ele>
        <time>2019-01-28T14:10:05Z</time>
      </trkpt>
      <trkpt lat="43.47941" lon="3.61965">
        <ele>92.2</ele>
        <time>2019-01-28T14:10:31Z</time>
      </trkpt>
      <trkpt lat="43.47945" lon="3.61946">
        <ele>91</ele>
        <time>2019-01-28T14:10:43Z</time>
      </trkpt>
      <trkpt lat="43.47946" lon="3.61936">
        <ele>89.8</ele>
        <time>2019-01-28T14:10:51Z</time>
      </trkpt>
      <trkpt lat="43.47948" lon="3.61918">
        <ele>88.6</ele>
        <time>2019-01-28T14:11:00Z</time>
      </trkpt>
      <trkpt lat="43.47947" lon="3.61901">
        <ele>87.6</ele>
        <time>2019-01-28T14:11:08Z</time>
      </trkpt>
      <trkpt lat="43.47947" lon="3.6188">
        <ele>86.4</ele>
        <time>2019-01-28T14:11:19Z</time>
      </trkpt>
      <trkpt lat="43.47952" lon="3.61855">
        <ele>85.4</ele>
        <time>2019-01-28T14:11:32Z</time>
      </trkpt>
      <trkpt lat="43.47958" lon="3.61826">
        <ele>84.4</ele>
        <time>2019-01-28T14:11:48Z</time>
      </trkpt>
      <trkpt lat="43.47958" lon="3.61822">
        <ele>84</ele>
        <time>2019-01-28T14:11:50Z</time>
      </trkpt>
      <trkpt lat="43.47961" lon="3.61798">
        <ele>83.4</ele>
        <time>2019-01-28T14:12:04Z</time>
      </trkpt>
      <trkpt lat="43.47963" lon="3.61781">
        <ele>82.4</ele>
        <time>2019-01-28T14:12:15Z</time>
      </trkpt>
      <trkpt lat="43.47965" lon="3.61759">
        <ele>81.4</ele>
        <time>2019-01-28T14:12:28Z</time>
      </trkpt>
      <trkpt lat="43.47966" lon="3.61747">
        <ele>80.2</ele>
        <time>2019-01-28T14:12:35Z</time>
      </trkpt>
      <trkpt lat="43.47968" lon="3.61715">
        <ele>79</ele>
        <time>2019-01-28T14:12:56Z</time>
      </trkpt>
      <trkpt lat="43.47973" lon="3.61686">
        <ele>77.6</ele>
        <time>2019-01-28T14:13:13Z</time>
      </trkpt>
      <trkpt lat="43.4798" lon="3.61659">
        <ele>76.6</ele>
        <time>2019-01-28T14:13:28Z</time>
      </trkpt>
      <trkpt lat="43.47981" lon="3.61639">
        <ele>76</ele>
        <time>2019-01-28T14:13:39Z</time>
      </trkpt>
      <trkpt lat="43.47981" lon="3.6163">
        <ele>75.8</ele>
        <time>2019-01-28T14:13:44Z</time>
      </trkpt>
      <trkpt lat="43.47981" lon="3.61617">
        <ele>75.4</ele>
        <time>2019-01-28T14:13:49Z</time>
      </trkpt>
      <trkpt lat="43.47981" lon="3.61588">
        <ele>74.2</ele>
        <time>2019-01-28T14:14:03Z</time>
      </trkpt>
      <trkpt lat="43.47982" lon="3.61576">
        <ele>73</ele>
        <time>2019-01-28T14:14:07Z</time>
      </trkpt>
      <trkpt lat="43.47984" lon="3.61544">
        <ele>72</ele>
        <time>2019-01-28T14:14:21Z</time>
      </trkpt>
      <trkpt lat="43.47983" lon="3.61493">
        <ele>77.1</ele>
      </trkpt>
      <trkpt lat="43.47984" lon="3.61482">
        <ele>76.9</ele>
      </trkpt>
      <trkpt lat="43.47983" lon="3.61471">
        <ele>76.7</ele>
      </trkpt>
      <trkpt lat="43.47983" lon="3.61459">
        <ele>76.5</ele>
      </trkpt>
      <trkpt lat="43.47987" lon="3.61416">
        <ele>75.6</ele>
      </trkpt>
      <trkpt lat="43.47985" lon="3.61347">
        <ele>74.6</ele>
      </trkpt>
    </trkseg>
  </trk>
</gpx>